Home   Weather   India   Vellore   Past weeks
Flag for India

Past Weather in Vellore, Tamil Nadu, India — Yesterday and Last 2 Weeks

Currently: 84 °F. Scattered clouds. (Weather station: Madras / Minambakkam, India). See more current weather

Past Weather in Vellore — Graph

°F

Vellore Temperature Yesterday

Maximum temperature yesterday: 90 °F (at 12:30 pm)
Minimum temperature yesterday: 72 °F (at 5:00 am)
Average temperature yesterday: 79 °F

High & Low Weather Summary for the Past Weeks

 TemperatureHumidityPressure
High90 °F (Feb 24, 12:30 pm)94% (Feb 11, 7:30 am)30.01 "Hg (Feb 11, 7:30 am)
Low68 °F (Feb 11, 3:30 am)40% (Feb 11, 4:30 pm)29.83 "Hg (Feb 10, 3:00 pm)
Average78 °F71%29.91 "Hg
* Reported Feb 10 9:30 am — Feb 25 10:00 am, Vellore. Weather by CustomWeather, © 2021

Note: Actual official high and low records may vary slightly from our data, if they occured in-between our weather recording intervals... More about our weather records

Vellore Weather History for the Previous 24 Hours

Scroll right to see more
 ConditionsComfort  
Time TempWeatherWind HumidityBarometerVisibility
10:00 am
Thu, Feb 25
82 °FScattered clouds.2 mph66%29.98 "Hg3 mi
9:30 am81 °FScattered clouds.No wind70%29.95 "Hg2 mi
9:00 am79 °FFog.3 mph74%29.95 "Hg2 mi
8:30 am77 °FFog.3 mph79%29.95 "Hg1 mi
8:00 am75 °FFog.3 mph83%29.92 "Hg1 mi
7:30 am73 °FFog.No wind89%29.92 "Hg1 mi
7:00 am72 °FFog.2 mph88%29.89 "Hg1 mi
6:30 am72 °FFog.2 mph94%29.89 "Hg1 mi
6:00 am72 °FFog.3 mph88%29.86 "Hg1 mi
5:00 am72 °FFog.No wind88%29.86 "Hg1 mi
4:30 am72 °FFog.No wind94%29.83 "Hg1 mi
4:00 am72 °FFog.No wind94%29.83 "Hg1 mi
3:30 am72 °FFog.No wind94%29.83 "Hg2 mi
3:00 am72 °FFog.2 mph88%29.86 "Hg2 mi
2:30 am72 °FFog.2 mph88%29.86 "Hg2 mi
2:00 am72 °FFog.No wind88%29.86 "Hg2 mi
1:30 am73 °FFog.No wind83%29.86 "Hg2 mi
1:00 am73 °FFog.No wind83%29.86 "Hg2 mi
12:30 am73 °FFog.No wind89%29.89 "Hg2 mi
12:00 am73 °FFog.No wind83%29.89 "Hg3 mi
11:30 pm
Wed, Feb 24
75 °FFog.2 mph78%29.89 "Hg3 mi
11:00 pm75 °FFog.2 mph78%29.92 "Hg3 mi
10:30 pm75 °FFog.2 mph83%29.92 "Hg3 mi
10:00 pm77 °FFog.6 mph79%29.92 "Hg3 mi
9:30 pm77 °FFog.3 mph74%29.92 "Hg3 mi
9:00 pm79 °FFog.5 mph74%29.89 "Hg3 mi
8:30 pm79 °FFog.6 mph74%29.89 "Hg3 mi
8:00 pm79 °FPassing clouds.7 mph70%29.89 "Hg4 mi
7:30 pm79 °FPassing clouds.7 mph70%29.86 "Hg4 mi
7:00 pm79 °FPassing clouds.7 mph65%29.86 "Hg4 mi
6:30 pm79 °FPassing clouds.7 mph65%29.86 "Hg4 mi
6:00 pm81 °FPassing clouds.7 mph62%29.83 "Hg4 mi
5:30 pm82 °FPassing clouds.8 mph62%29.83 "Hg4 mi
5:00 pm84 °FPassing clouds.6 mph55%29.83 "Hg4 mi
4:30 pm84 °FPassing clouds.7 mph51%29.83 "Hg4 mi
4:00 pm86 °FPassing clouds.8 mph49%29.83 "Hg4 mi
3:30 pm86 °FPassing clouds.9 mph46%29.83 "Hg4 mi
3:00 pm88 °FPassing clouds.8 mph43%29.83 "Hg4 mi
2:30 pm88 °FPassing clouds.9 mph46%29.83 "Hg4 mi
2:00 pm88 °FPassing clouds.7 mph49%29.86 "Hg4 mi
1:30 pm90 °FPassing clouds.8 mph43%29.86 "Hg4 mi
1:00 pm90 °FPassing clouds.9 mph41%29.89 "Hg4 mi
12:30 pm90 °FPassing clouds.5 mph43%29.89 "Hg4 mi
12:00 pm88 °FPassing clouds.No wind52%29.92 "Hg4 mi
11:30 am88 °FHaze.2 mph49%29.92 "Hg3 mi
11:00 am84 °FHaze.2 mph58%29.95 "Hg3 mi
Weather by CustomWeather, © 2021

See weather overview